createdAt,value
2018-09-21T00:02:55.009Z,46.00
2018-09-21T00:06:19.858Z,45.42
2018-09-21T00:09:44.293Z,46.16
2018-09-21T00:13:08.713Z,46.37
2018-09-21T00:16:33.197Z,45.92
2018-09-21T00:19:57.624Z,46.32
2018-09-21T00:23:22.045Z,47.20
2018-09-21T00:26:46.462Z,47.15
2018-09-21T00:30:10.851Z,47.18
2018-09-21T00:33:35.329Z,47.02
2018-09-21T00:36:59.728Z,47.19
2018-09-21T00:40:24.162Z,47.11
2018-09-21T00:43:48.591Z,46.60
2018-09-21T00:47:12.984Z,47.58
2018-09-21T00:50:37.395Z,48.47
2018-09-21T00:54:01.841Z,48.01
2018-09-21T00:57:26.233Z,47.84
2018-09-21T01:00:50.690Z,48.92
2018-09-21T01:04:15.121Z,48.94
2018-09-21T01:07:39.561Z,48.35
2018-09-21T01:11:04.027Z,48.78
2018-09-21T01:14:28.423Z,48.18
2018-09-21T01:17:52.871Z,48.92
2018-09-21T01:21:17.295Z,48.73
2018-09-21T01:24:41.703Z,48.88
2018-09-21T01:28:06.103Z,49.09
2018-09-21T01:31:30.508Z,48.80
2018-09-21T01:34:54.941Z,48.93
2018-09-21T01:38:19.365Z,48.93
2018-09-21T01:41:43.795Z,49.16
2018-09-21T01:45:08.230Z,48.89
2018-09-21T01:48:32.651Z,49.65
2018-09-21T01:51:57.133Z,49.65
2018-09-21T01:55:21.539Z,49.38
2018-09-21T01:58:45.968Z,49.30
2018-09-21T02:02:10.394Z,49.42
2018-09-21T02:05:34.820Z,49.15
2018-09-21T02:08:59.223Z,49.77
2018-09-21T02:12:23.639Z,49.19
2018-09-21T02:15:48.087Z,49.25
2018-09-21T02:19:12.547Z,49.63
2018-09-21T02:22:36.980Z,48.79
2018-09-21T02:26:01.433Z,49.76
2018-09-21T02:29:25.827Z,49.47
2018-09-21T02:32:50.261Z,48.76
2018-09-21T02:36:14.664Z,49.33
2018-09-21T02:39:39.084Z,49.26
2018-09-21T02:43:03.509Z,49.87
2018-09-21T02:46:27.908Z,49.72
2018-09-21T02:49:52.337Z,49.93
2018-09-21T02:53:16.721Z,49.89
2018-09-21T02:56:41.862Z,49.17
2018-09-21T03:00:07.712Z,49.38
2018-09-21T03:03:32.122Z,49.68
2018-09-21T03:06:56.656Z,49.68
2018-09-21T03:10:21.056Z,49.10
2018-09-21T03:13:45.498Z,48.68
2018-09-21T03:17:09.900Z,47.87
2018-09-21T03:20:34.332Z,47.98
2018-09-21T03:23:58.780Z,48.69
2018-09-21T03:27:23.172Z,48.19
2018-09-21T03:30:47.627Z,47.92
2018-09-21T03:34:11.994Z,46.71
2018-09-21T03:37:36.405Z,47.53
2018-09-21T03:41:00.799Z,46.89
2018-09-21T03:44:25.225Z,47.14
2018-09-21T03:47:49.648Z,47.02
2018-09-21T03:51:14.149Z,47.18
2018-09-21T03:54:38.571Z,46.82
2018-09-21T03:58:03.202Z,46.29
2018-09-21T04:01:27.630Z,46.70
2018-09-21T04:04:52.140Z,47.47
2018-09-21T04:08:16.600Z,47.51
2018-09-21T04:11:41.067Z,47.10
2018-09-21T04:15:06.662Z,47.86
2018-09-21T04:18:31.242Z,47.57
2018-09-21T04:21:55.712Z,47.80
2018-09-21T04:25:20.173Z,48.03
2018-09-21T04:28:44.804Z,48.31
2018-09-21T04:32:09.222Z,48.69
2018-09-21T04:35:33.624Z,49.92
2018-09-21T04:38:58.065Z,49.74
2018-09-21T04:42:22.529Z,49.54
2018-09-21T04:45:46.965Z,49.50
2018-09-21T04:49:11.376Z,49.43
2018-09-21T04:52:35.796Z,49.58
2018-09-21T04:56:00.280Z,48.74
2018-09-21T04:59:24.673Z,48.52
2018-09-21T05:02:49.088Z,48.57
2018-09-21T05:06:13.575Z,48.32
2018-09-21T05:09:37.999Z,48.91
2018-09-21T05:13:02.414Z,48.35
2018-09-21T05:16:26.884Z,48.28
2018-09-21T05:19:51.545Z,49.10
2018-09-21T05:23:15.919Z,48.89
2018-09-21T05:26:40.446Z,48.85
2018-09-21T05:30:05.018Z,49.35
2018-09-21T05:33:29.472Z,49.10
2018-09-21T05:36:53.857Z,49.99
2018-09-21T05:40:18.347Z,49.65
2018-09-21T05:43:42.782Z,49.54
2018-09-21T05:47:07.337Z,50.42
2018-09-21T05:50:31.760Z,50.44
2018-09-21T05:53:56.171Z,49.98
2018-09-21T05:57:20.608Z,50.53
2018-09-21T06:00:45.046Z,49.77
2018-09-21T06:04:09.461Z,49.92
2018-09-21T06:07:35.045Z,49.34
2018-09-21T06:10:59.446Z,47.73
2018-09-21T06:14:26.757Z,47.53
2018-09-21T06:17:51.221Z,46.54
2018-09-21T06:21:15.721Z,45.40
2018-09-21T06:24:40.071Z,44.24
2018-09-21T06:28:04.504Z,43.68
2018-09-21T06:31:28.909Z,42.07
2018-09-21T06:34:53.411Z,40.96
2018-09-21T06:38:17.877Z,40.57
2018-09-21T06:41:42.295Z,40.42
2018-09-21T06:45:06.823Z,40.10
2018-09-21T06:48:31.327Z,39.83
2018-09-21T06:51:55.854Z,40.26
2018-09-21T06:55:20.330Z,40.34
2018-09-21T06:58:44.966Z,40.69
2018-09-21T07:02:09.381Z,40.96
2018-09-21T07:05:33.809Z,41.29
2018-09-21T07:08:58.248Z,41.29
2018-09-21T07:12:22.703Z,42.50
2018-09-21T07:15:47.180Z,43.45
2018-09-21T07:19:11.679Z,43.79
2018-09-21T07:22:36.408Z,44.21
2018-09-21T07:26:00.818Z,44.60
2018-09-21T07:29:25.246Z,45.23
2018-09-21T07:32:49.656Z,45.83
2018-09-21T07:36:14.079Z,48.30
2018-09-21T07:39:38.500Z,47.62
2018-09-21T07:43:02.952Z,48.92
2018-09-21T07:46:27.405Z,49.81
2018-09-21T07:49:51.840Z,48.97
2018-09-21T07:53:16.282Z,48.49
2018-09-21T07:56:40.687Z,48.21
2018-09-21T08:00:05.517Z,48.45
2018-09-21T08:03:29.950Z,48.85
2018-09-21T08:06:54.356Z,48.52
2018-09-21T08:10:18.778Z,48.76
2018-09-21T08:13:43.192Z,50.69
2018-09-21T08:17:08.049Z,50.64
2018-09-21T08:20:32.452Z,50.51
2018-09-21T08:23:56.856Z,54.11
2018-09-21T08:27:21.272Z,58.81
2018-09-21T08:30:45.677Z,69.93
2018-09-21T08:34:10.184Z,80.87
2018-09-21T08:37:34.633Z,80.46
2018-09-21T08:40:59.057Z,79.23
2018-09-21T08:44:23.470Z,80.69
2018-09-21T08:47:47.900Z,80.11
2018-09-21T08:51:12.344Z,82.47
2018-09-21T08:54:36.752Z,81.46
2018-09-21T08:58:01.176Z,82.22
2018-09-21T09:01:25.661Z,80.97
2018-09-21T09:04:50.107Z,82.20
2018-09-21T09:08:14.524Z,82.17
2018-09-21T09:11:39.261Z,81.97
2018-09-21T09:15:03.746Z,82.29
2018-09-21T09:18:28.125Z,83.69
2018-09-21T09:21:52.524Z,82.25
2018-09-21T09:25:16.973Z,82.80
2018-09-21T09:28:41.412Z,82.37
2018-09-21T09:32:05.868Z,81.55
2018-09-21T09:35:30.274Z,80.63
2018-09-21T09:38:54.696Z,80.83
2018-09-21T09:42:19.080Z,80.76
2018-09-21T09:45:43.491Z,80.86
2018-09-21T09:49:08.035Z,82.77
2018-09-21T09:52:32.439Z,80.88
2018-09-21T09:55:56.837Z,81.21
2018-09-21T09:59:21.252Z,80.79
2018-09-21T10:02:45.643Z,81.65
2018-09-21T10:06:10.136Z,82.41
2018-09-21T10:09:34.588Z,80.15
2018-09-21T10:12:59.013Z,81.17
2018-09-21T10:16:23.464Z,80.91
2018-09-21T10:19:47.831Z,78.75
2018-09-21T10:23:12.286Z,79.87
2018-09-21T10:26:36.748Z,77.67
2018-09-21T10:30:01.185Z,77.83
2018-09-21T10:33:25.663Z,77.71
2018-09-21T10:36:50.059Z,76.58
2018-09-21T10:40:14.535Z,74.46
2018-09-21T10:43:38.896Z,72.95
2018-09-21T10:47:03.344Z,70.54
2018-09-21T10:50:27.797Z,69.45
2018-09-21T10:53:52.225Z,69.88
2018-09-21T10:57:16.598Z,70.87
2018-09-21T11:00:41.166Z,70.10
2018-09-21T11:04:05.603Z,70.58
2018-09-21T11:07:30.053Z,69.62
2018-09-21T11:10:54.471Z,69.78
2018-09-21T11:14:18.940Z,68.48
2018-09-21T11:17:43.362Z,68.66
2018-09-21T11:21:07.792Z,66.94
2018-09-21T11:24:32.253Z,64.37
2018-09-21T11:27:56.683Z,62.25
2018-09-21T11:31:21.171Z,61.21
2018-09-21T11:34:45.906Z,62.39
2018-09-21T11:38:10.366Z,60.78
2018-09-21T11:41:34.778Z,61.74
2018-09-21T11:44:59.170Z,60.38
2018-09-21T11:48:23.634Z,60.11
2018-09-21T11:51:48.078Z,59.60
2018-09-21T11:55:12.538Z,61.09
2018-09-21T11:58:36.943Z,59.35
2018-09-21T12:02:01.400Z,58.69
2018-09-21T12:05:25.938Z,58.00
2018-09-21T12:08:50.727Z,58.82
2018-09-21T12:12:15.239Z,57.12
2018-09-21T12:15:39.690Z,54.46
2018-09-21T12:19:04.169Z,53.70
2018-09-21T12:22:28.571Z,54.94
2018-09-21T12:25:52.988Z,52.70
2018-09-21T12:29:17.408Z,53.06
2018-09-21T12:32:42.069Z,49.96
2018-09-21T12:36:06.915Z,48.81
2018-09-21T12:39:31.291Z,48.87
2018-09-21T12:42:55.692Z,47.05
2018-09-21T12:46:27.535Z,48.21
2018-09-21T12:49:51.971Z,50.00
2018-09-21T12:53:16.417Z,47.11
2018-09-21T12:56:40.888Z,44.89
2018-09-21T13:00:06.452Z,41.50
2018-09-21T13:03:30.916Z,41.32
2018-09-21T13:06:55.302Z,41.08
2018-09-21T13:10:19.736Z,43.03
2018-09-21T13:13:44.124Z,43.09
2018-09-21T13:17:08.544Z,43.46
2018-09-21T13:20:32.980Z,41.53
2018-09-21T13:23:57.354Z,42.27
2018-09-21T13:27:21.788Z,41.56
2018-09-21T13:30:46.209Z,42.56
2018-09-21T13:34:10.715Z,40.71
2018-09-21T13:37:35.158Z,40.57
2018-09-21T13:40:59.593Z,42.10
2018-09-21T13:44:24.016Z,42.29
2018-09-21T13:47:48.460Z,39.22
2018-09-21T13:51:12.907Z,33.47
2018-09-21T13:54:37.294Z,36.61
2018-09-21T13:58:01.701Z,32.36
2018-09-21T14:01:26.486Z,30.58
2018-09-21T14:04:50.878Z,28.04
2018-09-21T14:08:15.729Z,30.03
2018-09-21T14:11:40.556Z,30.05
2018-09-21T14:15:05.124Z,33.31
2018-09-21T14:18:29.551Z,36.10
2018-09-21T14:21:54.632Z,37.80
2018-09-21T14:25:19.100Z,40.40
2018-09-21T14:28:43.565Z,43.52
2018-09-21T14:32:08.598Z,45.10
2018-09-21T14:35:33.015Z,45.23
2018-09-21T14:38:57.484Z,47.13
2018-09-21T14:42:21.983Z,46.16
2018-09-21T14:45:46.393Z,46.16
2018-09-21T14:49:10.852Z,42.14
2018-09-21T14:52:35.366Z,36.88
2018-09-21T14:55:59.799Z,33.31
2018-09-21T14:59:24.265Z,35.43
2018-09-21T15:02:48.719Z,35.64
2018-09-21T15:06:13.248Z,36.36
2018-09-21T15:09:37.741Z,37.33
2018-09-21T15:13:02.224Z,36.21
2018-09-21T15:16:26.622Z,33.56
2018-09-21T15:19:51.028Z,32.03
2018-09-21T15:23:24.001Z,29.54
2018-09-21T15:27:01.269Z,27.76
2018-09-21T15:30:27.233Z,26.58
2018-09-21T15:33:51.685Z,27.48
2018-09-21T15:37:16.500Z,28.29
2018-09-21T15:40:42.161Z,27.95
2018-09-21T15:44:06.828Z,26.22
2018-09-21T15:47:32.636Z,24.90
2018-09-21T15:50:57.138Z,24.25
2018-09-21T15:54:21.588Z,25.90
2018-09-21T15:57:46.018Z,28.09
2018-09-21T16:01:11.435Z,27.63
2018-09-21T16:04:35.891Z,26.98
2018-09-21T16:08:01.083Z,27.96
2018-09-21T16:11:25.811Z,27.28
2018-09-21T16:14:51.066Z,26.32
2018-09-21T16:18:15.527Z,27.37
2018-09-21T16:21:40.029Z,27.80
2018-09-21T16:25:04.779Z,28.89
2018-09-21T16:28:29.855Z,28.31
2018-09-21T16:31:54.760Z,29.49
2018-09-21T16:35:19.199Z,28.50
2018-09-21T16:38:43.706Z,31.03
2018-09-21T16:42:08.098Z,31.96
2018-09-21T16:45:32.565Z,33.57
2018-09-21T16:48:57.054Z,34.49
2018-09-21T16:52:26.631Z,34.99
2018-09-21T16:55:52.902Z,35.78
2018-09-21T16:59:18.028Z,36.23
2018-09-21T17:02:42.823Z,36.26
2018-09-21T17:06:07.292Z,36.74
2018-09-21T17:09:31.760Z,36.69
2018-09-21T17:12:56.219Z,38.05
2018-09-21T17:16:20.761Z,37.94
2018-09-21T17:19:45.318Z,37.95
2018-09-21T17:23:09.874Z,37.84
2018-09-21T17:26:34.411Z,37.38
2018-09-21T17:29:58.933Z,37.88
2018-09-21T17:33:23.478Z,38.68
2018-09-21T17:36:48.045Z,39.63
2018-09-21T17:40:15.485Z,39.31
2018-09-21T17:43:40.053Z,39.70
2018-09-21T17:47:04.617Z,39.38
2018-09-21T17:50:28.971Z,40.26
2018-09-21T17:53:53.528Z,40.02
2018-09-21T17:57:18.113Z,39.83
2018-09-21T18:00:42.633Z,40.71
2018-09-21T18:04:07.109Z,39.72
2018-09-21T18:07:31.670Z,39.51
2018-09-21T18:10:56.375Z,41.23
2018-09-21T18:14:20.897Z,43.33
2018-09-21T18:17:45.549Z,43.82
2018-09-21T18:21:10.759Z,45.71
2018-09-21T18:24:35.366Z,46.45
2018-09-21T18:27:59.862Z,47.09
2018-09-21T18:31:24.521Z,47.47
2018-09-21T18:34:48.933Z,47.86
2018-09-21T18:38:13.380Z,48.90
2018-09-21T18:41:37.882Z,49.23
2018-09-21T18:45:02.440Z,48.67
2018-09-21T18:48:27.000Z,49.42
2018-09-21T18:51:51.550Z,48.62
2018-09-21T18:55:16.104Z,48.92
2018-09-21T18:58:40.803Z,48.31
2018-09-21T19:02:05.373Z,48.13
2018-09-21T19:05:29.868Z,47.92
2018-09-21T19:08:54.372Z,49.57
2018-09-21T19:12:18.950Z,48.97
2018-09-21T19:15:43.430Z,48.26
2018-09-21T19:19:08.018Z,47.18
2018-09-21T19:22:32.416Z,46.33
2018-09-21T19:25:56.832Z,46.92
2018-09-21T19:29:21.325Z,45.81
2018-09-21T19:32:45.822Z,45.86
2018-09-21T19:36:10.293Z,45.68
2018-09-21T19:39:34.767Z,45.60
2018-09-21T19:42:59.479Z,45.94
2018-09-21T19:46:23.857Z,46.14
2018-09-21T19:49:50.011Z,45.84
2018-09-21T19:53:14.460Z,45.91
2018-09-21T19:56:38.994Z,46.28
2018-09-21T20:00:03.624Z,46.09
2018-09-21T20:03:28.130Z,46.08
2018-09-21T20:06:52.647Z,46.77
2018-09-21T20:10:17.141Z,46.06
2018-09-21T20:13:42.175Z,45.67
2018-09-21T20:17:07.019Z,46.29
2018-09-21T20:20:31.706Z,46.18
2018-09-21T20:23:56.165Z,46.15
2018-09-21T20:27:20.695Z,46.19
2018-09-21T20:30:50.244Z,46.19
2018-09-21T20:34:14.773Z,46.78
2018-09-21T20:37:39.475Z,46.65
2018-09-21T20:41:03.920Z,47.33
2018-09-21T20:44:28.434Z,48.04
2018-09-21T20:47:53.025Z,47.92
2018-09-21T20:51:17.612Z,48.39
2018-09-21T20:54:42.258Z,48.34
2018-09-21T20:58:06.812Z,48.26
2018-09-21T21:01:31.317Z,49.09
2018-09-21T21:04:55.893Z,48.55
2018-09-21T21:08:20.430Z,49.70
2018-09-21T21:11:45.096Z,49.50
2018-09-21T21:15:09.626Z,49.58
2018-09-21T21:18:34.099Z,49.66
2018-09-21T21:21:58.525Z,50.01
2018-09-21T21:25:22.971Z,50.06
2018-09-21T21:28:47.486Z,50.83
2018-09-21T21:32:12.013Z,50.89
2018-09-21T21:35:36.678Z,52.19
2018-09-21T21:39:01.209Z,52.11
2018-09-21T21:42:25.808Z,51.88
2018-09-21T21:45:50.326Z,53.00
2018-09-21T21:49:14.900Z,52.42
2018-09-21T21:52:39.309Z,53.14
2018-09-21T21:56:03.892Z,53.29
2018-09-21T21:59:28.319Z,53.63
2018-09-21T22:02:52.716Z,54.79
2018-09-21T22:06:17.131Z,54.57
2018-09-21T22:09:41.630Z,54.17
2018-09-21T22:13:11.274Z,54.42
2018-09-21T22:16:35.986Z,54.88
2018-09-21T22:20:00.434Z,55.97
2018-09-21T22:23:24.832Z,56.35
2018-09-21T22:26:49.277Z,56.20
2018-09-21T22:30:13.781Z,55.70
2018-09-21T22:33:38.278Z,55.95
2018-09-21T22:37:02.762Z,56.45
2018-09-21T22:40:27.197Z,56.46
2018-09-21T22:43:54.173Z,56.45
2018-09-21T22:47:18.626Z,56.51
2018-09-21T22:50:43.024Z,56.86
2018-09-21T22:54:07.513Z,57.54
2018-09-21T22:57:32.012Z,57.69
2018-09-21T23:00:56.557Z,57.60
2018-09-21T23:04:22.106Z,59.19
2018-09-21T23:07:46.538Z,60.27
2018-09-21T23:11:10.993Z,61.80
2018-09-21T23:14:35.409Z,61.05
2018-09-21T23:18:00.013Z,60.84
2018-09-21T23:21:24.455Z,61.22
2018-09-21T23:24:48.935Z,61.17
2018-09-21T23:28:13.407Z,61.04
2018-09-21T23:31:37.847Z,60.43
2018-09-21T23:35:02.259Z,59.87
2018-09-21T23:38:26.816Z,60.71
2018-09-21T23:41:51.198Z,60.76
2018-09-21T23:45:15.706Z,61.33
2018-09-21T23:48:40.314Z,61.11
2018-09-21T23:52:05.177Z,61.74
2018-09-21T23:55:29.603Z,62.18
2018-09-21T23:58:54.125Z,61.48
